Leeds, Alabama
Current Conditions -  °F | °C
As of 12:53 PM on Friday 28 Nov 2014 (Local Time) from KBHM Reporting Station
Clear Clear  
Wind Chill: 47°   Ceiling: Unl
Heat Index: 49°   Visibility: 10mi
Dew Point: 13°   Wind: 5mph
Humidity: 24%   Direction: NA
Pressure: 30.36"   Gusts: NA
Location:  33.54°N, 86.54°W
Report Text: KBHM 281853Z VRB04KT 10SM CLR 09/M11 A3036 RMK AO2 SLP283 T00941106
Loading
Personal Weather Stations






























Interactive Weather Map New forecast layout! Learn more

10-Day Weather Forecast

Advertisements
Track Severe Weather on mobile